sensor_id;sensor_type;location;lat;lon;timestamp;P1;durP1;ratioP1;P2;durP2;ratioP2
6898;SDS011;3488;42.616;23.350;2023-02-15T00:01:11;39.30;;;21.02;;
6898;SDS011;3488;42.616;23.350;2023-02-15T00:03:38;35.92;;;20.00;;
6898;SDS011;3488;42.616;23.350;2023-02-15T00:06:05;36.83;;;18.88;;
6898;SDS011;3488;42.616;23.350;2023-02-15T00:08:32;31.95;;;20.00;;
6898;SDS011;3488;42.616;23.350;2023-02-15T00:11:03;38.45;;;20.52;;
6898;SDS011;3488;42.616;23.350;2023-02-15T00:13:31;35.60;;;20.17;;
6898;SDS011;3488;42.616;23.350;2023-02-15T00:16:01;28.77;;;18.10;;
6898;SDS011;3488;42.616;23.350;2023-02-15T00:18:29;32.70;;;20.13;;
6898;SDS011;3488;42.616;23.350;2023-02-15T00:20:57;36.65;;;21.02;;
6898;SDS011;3488;42.616;23.350;2023-02-15T00:23:25;36.95;;;18.00;;
6898;SDS011;3488;42.616;23.350;2023-02-15T00:25:52;33.45;;;19.80;;
6898;SDS011;3488;42.616;23.350;2023-02-15T00:28:29;35.35;;;18.73;;
6898;SDS011;3488;42.616;23.350;2023-02-15T00:31:01;37.10;;;20.17;;
6898;SDS011;3488;42.616;23.350;2023-02-15T00:33:30;34.15;;;19.25;;
6898;SDS011;3488;42.616;23.350;2023-02-15T00:35:58;35.03;;;19.73;;
6898;SDS011;3488;42.616;23.350;2023-02-15T00:38:25;33.53;;;16.98;;
6898;SDS011;3488;42.616;23.350;2023-02-15T00:40:53;32.78;;;19.45;;
6898;SDS011;3488;42.616;23.350;2023-02-15T00:43:20;37.63;;;19.50;;
6898;SDS011;3488;42.616;23.350;2023-02-15T00:45:47;31.45;;;18.60;;
6898;SDS011;3488;42.616;23.350;2023-02-15T00:48:15;31.88;;;18.88;;
6898;SDS011;3488;42.616;23.350;2023-02-15T00:50:45;26.00;;;16.13;;
6898;SDS011;3488;42.616;23.350;2023-02-15T00:53:13;32.67;;;20.02;;
6898;SDS011;3488;42.616;23.350;2023-02-15T00:55:40;29.40;;;17.15;;
6898;SDS011;3488;42.616;23.350;2023-02-15T00:58:07;30.92;;;19.85;;
6898;SDS011;3488;42.616;23.350;2023-02-15T01:00:35;31.23;;;17.52;;
6898;SDS011;3488;42.616;23.350;2023-02-15T01:03:03;31.92;;;18.38;;
6898;SDS011;3488;42.616;23.350;2023-02-15T01:05:30;33.90;;;19.70;;
6898;SDS011;3488;42.616;23.350;2023-02-15T01:07:58;27.23;;;16.73;;
6898;SDS011;3488;42.616;23.350;2023-02-15T01:10:26;28.38;;;17.88;;
6898;SDS011;3488;42.616;23.350;2023-02-15T01:12:54;34.92;;;20.35;;
6898;SDS011;3488;42.616;23.350;2023-02-15T01:15:22;30.50;;;19.02;;
6898;SDS011;3488;42.616;23.350;2023-02-15T01:17:50;34.75;;;19.85;;
6898;SDS011;3488;42.616;23.350;2023-02-15T01:20:18;32.47;;;18.02;;
6898;SDS011;3488;42.616;23.350;2023-02-15T01:22:45;31.10;;;15.90;;
6898;SDS011;3488;42.616;23.350;2023-02-15T01:25:16;32.55;;;18.27;;
6898;SDS011;3488;42.616;23.350;2023-02-15T01:27:44;32.10;;;18.38;;
6898;SDS011;3488;42.616;23.350;2023-02-15T01:30:11;32.03;;;19.73;;
6898;SDS011;3488;42.616;23.350;2023-02-15T01:32:39;27.58;;;15.82;;
6898;SDS011;3488;42.616;23.350;2023-02-15T01:35:07;31.45;;;17.30;;
6898;SDS011;3488;42.616;23.350;2023-02-15T01:37:35;27.55;;;16.85;;
6898;SDS011;3488;42.616;23.350;2023-02-15T01:40:04;27.90;;;18.27;;
6898;SDS011;3488;42.616;23.350;2023-02-15T01:42:35;30.58;;;17.58;;
6898;SDS011;3488;42.616;23.350;2023-02-15T01:45:03;32.17;;;17.55;;
6898;SDS011;3488;42.616;23.350;2023-02-15T01:47:41;32.00;;;19.52;;
6898;SDS011;3488;42.616;23.350;2023-02-15T01:50:12;27.42;;;16.67;;
6898;SDS011;3488;42.616;23.350;2023-02-15T01:52:43;29.73;;;18.05;;
6898;SDS011;3488;42.616;23.350;2023-02-15T01:55:15;32.15;;;16.60;;
6898;SDS011;3488;42.616;23.350;2023-02-15T01:57:44;35.05;;;18.05;;
6898;SDS011;3488;42.616;23.350;2023-02-15T02:00:13;29.73;;;17.80;;
6898;SDS011;3488;42.616;23.350;2023-02-15T02:02:41;34.50;;;17.95;;
6898;SDS011;3488;42.616;23.350;2023-02-15T02:05:12;29.67;;;17.48;;
6898;SDS011;3488;42.616;23.350;2023-02-15T02:07:39;28.30;;;17.52;;
6898;SDS011;3488;42.616;23.350;2023-02-15T02:10:09;32.33;;;17.83;;
6898;SDS011;3488;42.616;23.350;2023-02-15T02:12:40;35.05;;;19.67;;
6898;SDS011;3488;42.616;23.350;2023-02-15T02:15:11;31.13;;;17.63;;
6898;SDS011;3488;42.616;23.350;2023-02-15T02:17:42;31.67;;;17.75;;
6898;SDS011;3488;42.616;23.350;2023-02-15T02:20:26;27.02;;;16.00;;
6898;SDS011;3488;42.616;23.350;2023-02-15T02:23:05;29.63;;;17.05;;
6898;SDS011;3488;42.616;23.350;2023-02-15T02:31:58;31.90;;;17.90;;
6898;SDS011;3488;42.616;23.350;2023-02-15T02:34:51;26.63;;;16.38;;
6898;SDS011;3488;42.616;23.350;2023-02-15T02:37:28;28.10;;;16.30;;
6898;SDS011;3488;42.616;23.350;2023-02-15T02:40:03;25.85;;;14.30;;
6898;SDS011;3488;42.616;23.350;2023-02-15T02:42:36;29.63;;;17.50;;
6898;SDS011;3488;42.616;23.350;2023-02-15T02:45:07;31.73;;;17.02;;
6898;SDS011;3488;42.616;23.350;2023-02-15T02:47:36;32.78;;;17.38;;
6898;SDS011;3488;42.616;23.350;2023-02-15T02:50:12;30.40;;;17.50;;
6898;SDS011;3488;42.616;23.350;2023-02-15T02:52:41;28.58;;;16.88;;
6898;SDS011;3488;42.616;23.350;2023-02-15T02:55:12;28.70;;;16.83;;
6898;SDS011;3488;42.616;23.350;2023-02-15T02:57:43;30.73;;;16.10;;
6898;SDS011;3488;42.616;23.350;2023-02-15T03:00:18;27.88;;;15.55;;
6898;SDS011;3488;42.616;23.350;2023-02-15T03:02:47;29.92;;;16.48;;
6898;SDS011;3488;42.616;23.350;2023-02-15T03:05:20;26.52;;;16.52;;
6898;SDS011;3488;42.616;23.350;2023-02-15T03:07:51;26.52;;;15.30;;
6898;SDS011;3488;42.616;23.350;2023-02-15T03:10:20;29.65;;;17.77;;
6898;SDS011;3488;42.616;23.350;2023-02-15T03:12:50;21.98;;;14.70;;
6898;SDS011;3488;42.616;23.350;2023-02-15T03:15:19;26.67;;;16.42;;
6898;SDS011;3488;42.616;23.350;2023-02-15T03:17:49;31.17;;;17.45;;
6898;SDS011;3488;42.616;23.350;2023-02-15T03:20:29;25.52;;;15.73;;
6898;SDS011;3488;42.616;23.350;2023-02-15T03:23:01;23.95;;;14.70;;
6898;SDS011;3488;42.616;23.350;2023-02-15T03:25:31;25.92;;;16.38;;
6898;SDS011;3488;42.616;23.350;2023-02-15T03:28:01;25.08;;;14.75;;
6898;SDS011;3488;42.616;23.350;2023-02-15T03:30:33;26.55;;;16.95;;
6898;SDS011;3488;42.616;23.350;2023-02-15T03:33:02;28.77;;;16.27;;
6898;SDS011;3488;42.616;23.350;2023-02-15T03:35:44;19.42;;;12.55;;
6898;SDS011;3488;42.616;23.350;2023-02-15T03:38:17;28.08;;;17.88;;
6898;SDS011;3488;42.616;23.350;2023-02-15T03:40:47;26.98;;;17.13;;
6898;SDS011;3488;42.616;23.350;2023-02-15T03:43:34;26.67;;;16.38;;
6898;SDS011;3488;42.616;23.350;2023-02-15T03:46:11;27.52;;;16.83;;
6898;SDS011;3488;42.616;23.350;2023-02-15T03:48:42;21.85;;;13.95;;
6898;SDS011;3488;42.616;23.350;2023-02-15T03:51:16;27.63;;;15.77;;
6898;SDS011;3488;42.616;23.350;2023-02-15T03:54:01;17.10;;;11.32;;
6898;SDS011;3488;42.616;23.350;2023-02-15T03:56:30;29.48;;;17.58;;
6898;SDS011;3488;42.616;23.350;2023-02-15T03:59:00;15.48;;;11.18;;
6898;SDS011;3488;42.616;23.350;2023-02-15T04:01:46;27.42;;;16.13;;
6898;SDS011;3488;42.616;23.350;2023-02-15T04:04:25;26.13;;;16.35;;
6898;SDS011;3488;42.616;23.350;2023-02-15T04:06:58;27.17;;;16.13;;
6898;SDS011;3488;42.616;23.350;2023-02-15T04:09:25;15.10;;;10.85;;
6898;SDS011;3488;42.616;23.350;2023-02-15T04:12:09;27.45;;;14.73;;
6898;SDS011;3488;42.616;23.350;2023-02-15T04:14:36;25.15;;;16.08;;
6898;SDS011;3488;42.616;23.350;2023-02-15T04:17:20;30.02;;;15.57;;
6898;SDS011;3488;42.616;23.350;2023-02-15T04:19:47;30.50;;;16.45;;
6898;SDS011;3488;42.616;23.350;2023-02-15T04:22:33;24.45;;;15.93;;
6898;SDS011;3488;42.616;23.350;2023-02-15T04:25:17;30.05;;;17.05;;
6898;SDS011;3488;42.616;23.350;2023-02-15T04:27:46;25.35;;;15.70;;
6898;SDS011;3488;42.616;23.350;2023-02-15T04:30:14;27.58;;;16.65;;
6898;SDS011;3488;42.616;23.350;2023-02-15T04:32:43;24.98;;;15.18;;
6898;SDS011;3488;42.616;23.350;2023-02-15T04:35:11;23.83;;;13.43;;
6898;SDS011;3488;42.616;23.350;2023-02-15T04:37:40;25.58;;;14.85;;
6898;SDS011;3488;42.616;23.350;2023-02-15T04:40:09;31.00;;;17.30;;
6898;SDS011;3488;42.616;23.350;2023-02-15T04:42:37;32.08;;;17.77;;
6898;SDS011;3488;42.616;23.350;2023-02-15T04:45:05;24.75;;;13.40;;
6898;SDS011;3488;42.616;23.350;2023-02-15T04:47:33;28.38;;;16.77;;
6898;SDS011;3488;42.616;23.350;2023-02-15T04:50:00;23.33;;;13.50;;
6898;SDS011;3488;42.616;23.350;2023-02-15T04:52:27;30.50;;;16.45;;
6898;SDS011;3488;42.616;23.350;2023-02-15T04:54:56;26.60;;;16.77;;
6898;SDS011;3488;42.616;23.350;2023-02-15T04:57:23;30.55;;;16.88;;
6898;SDS011;3488;42.616;23.350;2023-02-15T04:59:50;27.92;;;14.98;;
6898;SDS011;3488;42.616;23.350;2023-02-15T05:02:17;34.05;;;16.75;;
6898;SDS011;3488;42.616;23.350;2023-02-15T05:04:44;29.85;;;18.00;;
6898;SDS011;3488;42.616;23.350;2023-02-15T05:07:11;25.23;;;14.98;;
6898;SDS011;3488;42.616;23.350;2023-02-15T05:09:38;29.33;;;15.98;;
6898;SDS011;3488;42.616;23.350;2023-02-15T05:12:06;30.15;;;16.25;;
6898;SDS011;3488;42.616;23.350;2023-02-15T05:14:33;26.83;;;17.50;;
6898;SDS011;3488;42.616;23.350;2023-02-15T05:17:00;32.35;;;17.83;;
6898;SDS011;3488;42.616;23.350;2023-02-15T05:19:28;30.13;;;17.02;;
6898;SDS011;3488;42.616;23.350;2023-02-15T05:21:55;25.55;;;16.30;;
6898;SDS011;3488;42.616;23.350;2023-02-15T05:24:22;34.63;;;17.40;;
6898;SDS011;3488;42.616;23.350;2023-02-15T05:27:09;25.88;;;16.23;;
6898;SDS011;3488;42.616;23.350;2023-02-15T05:29:54;29.85;;;16.80;;
6898;SDS011;3488;42.616;23.350;2023-02-15T05:32:22;29.25;;;17.58;;
6898;SDS011;3488;42.616;23.350;2023-02-15T05:34:49;38.60;;;17.08;;
6898;SDS011;3488;42.616;23.350;2023-02-15T05:37:16;25.98;;;15.98;;
6898;SDS011;3488;42.616;23.350;2023-02-15T05:39:43;27.60;;;16.35;;
6898;SDS011;3488;42.616;23.350;2023-02-15T05:42:11;33.25;;;16.55;;
6898;SDS011;3488;42.616;23.350;2023-02-15T05:44:38;30.70;;;15.77;;
6898;SDS011;3488;42.616;23.350;2023-02-15T05:47:04;31.33;;;17.63;;
6898;SDS011;3488;42.616;23.350;2023-02-15T05:49:32;26.35;;;16.10;;
6898;SDS011;3488;42.616;23.350;2023-02-15T05:51:59;29.35;;;17.98;;
6898;SDS011;3488;42.616;23.350;2023-02-15T05:54:26;28.67;;;16.10;;
6898;SDS011;3488;42.616;23.350;2023-02-15T05:56:53;29.75;;;16.25;;
6898;SDS011;3488;42.616;23.350;2023-02-15T05:59:22;27.83;;;15.18;;
6898;SDS011;3488;42.616;23.350;2023-02-15T06:01:49;27.73;;;15.88;;
6898;SDS011;3488;42.616;23.350;2023-02-15T06:04:16;27.13;;;15.70;;
6898;SDS011;3488;42.616;23.350;2023-02-15T06:06:43;29.55;;;16.35;;
6898;SDS011;3488;42.616;23.350;2023-02-15T06:09:10;23.55;;;14.90;;
6898;SDS011;3488;42.616;23.350;2023-02-15T06:11:38;24.90;;;15.25;;
6898;SDS011;3488;42.616;23.350;2023-02-15T06:14:05;25.63;;;14.40;;
6898;SDS011;3488;42.616;23.350;2023-02-15T06:16:33;31.75;;;15.73;;
6898;SDS011;3488;42.616;23.350;2023-02-15T06:19:00;25.75;;;14.95;;
6898;SDS011;3488;42.616;23.350;2023-02-15T06:21:27;28.52;;;14.65;;
6898;SDS011;3488;42.616;23.350;2023-02-15T06:23:55;26.15;;;15.73;;
6898;SDS011;3488;42.616;23.350;2023-02-15T06:26:21;26.27;;;15.63;;
6898;SDS011;3488;42.616;23.350;2023-02-15T06:28:48;21.13;;;14.23;;
6898;SDS011;3488;42.616;23.350;2023-02-15T06:31:15;20.83;;;13.70;;
6898;SDS011;3488;42.616;23.350;2023-02-15T06:33:44;23.02;;;14.38;;
6898;SDS011;3488;42.616;23.350;2023-02-15T06:36:11;22.80;;;13.50;;
6898;SDS011;3488;42.616;23.350;2023-02-15T06:38:38;25.70;;;15.60;;
6898;SDS011;3488;42.616;23.350;2023-02-15T06:41:06;25.75;;;15.25;;
6898;SDS011;3488;42.616;23.350;2023-02-15T06:43:33;23.15;;;13.40;;
6898;SDS011;3488;42.616;23.350;2023-02-15T06:46:00;24.70;;;14.95;;
6898;SDS011;3488;42.616;23.350;2023-02-15T06:48:27;20.77;;;13.80;;
6898;SDS011;3488;42.616;23.350;2023-02-15T06:50:55;18.75;;;12.02;;
6898;SDS011;3488;42.616;23.350;2023-02-15T06:53:22;22.08;;;13.60;;
6898;SDS011;3488;42.616;23.350;2023-02-15T06:55:49;27.98;;;12.23;;
6898;SDS011;3488;42.616;23.350;2023-02-15T06:58:16;21.13;;;13.82;;
6898;SDS011;3488;42.616;23.350;2023-02-15T07:00:43;18.90;;;12.55;;
6898;SDS011;3488;42.616;23.350;2023-02-15T07:03:12;20.25;;;13.38;;
6898;SDS011;3488;42.616;23.350;2023-02-15T07:05:40;18.85;;;10.30;;
6898;SDS011;3488;42.616;23.350;2023-02-15T07:08:09;19.83;;;12.75;;
6898;SDS011;3488;42.616;23.350;2023-02-15T07:10:37;22.20;;;12.18;;
6898;SDS011;3488;42.616;23.350;2023-02-15T07:13:04;25.90;;;14.48;;
6898;SDS011;3488;42.616;23.350;2023-02-15T07:15:30;24.15;;;13.30;;
6898;SDS011;3488;42.616;23.350;2023-02-15T07:17:57;19.08;;;12.35;;
6898;SDS011;3488;42.616;23.350;2023-02-15T07:20:24;21.48;;;11.63;;
6898;SDS011;3488;42.616;23.350;2023-02-15T07:22:51;18.95;;;10.65;;
6898;SDS011;3488;42.616;23.350;2023-02-15T07:25:19;20.55;;;12.05;;
6898;SDS011;3488;42.616;23.350;2023-02-15T07:27:46;19.13;;;11.70;;
6898;SDS011;3488;42.616;23.350;2023-02-15T07:30:14;15.88;;;11.75;;
6898;SDS011;3488;42.616;23.350;2023-02-15T07:32:42;20.35;;;12.27;;
6898;SDS011;3488;42.616;23.350;2023-02-15T07:35:27;18.00;;;10.85;;
6898;SDS011;3488;42.616;23.350;2023-02-15T07:37:54;19.27;;;11.05;;
6898;SDS011;3488;42.616;23.350;2023-02-15T07:40:22;19.70;;;11.93;;
6898;SDS011;3488;42.616;23.350;2023-02-15T07:42:50;18.38;;;11.45;;
6898;SDS011;3488;42.616;23.350;2023-02-15T07:45:19;15.73;;;10.68;;
6898;SDS011;3488;42.616;23.350;2023-02-15T07:47:47;15.38;;;9.13;;
6898;SDS011;3488;42.616;23.350;2023-02-15T07:50:14;14.45;;;8.20;;
6898;SDS011;3488;42.616;23.350;2023-02-15T07:52:41;19.33;;;11.07;;
6898;SDS011;3488;42.616;23.350;2023-02-15T07:55:08;15.48;;;10.88;;
6898;SDS011;3488;42.616;23.350;2023-02-15T07:57:42;21.35;;;12.20;;
6898;SDS011;3488;42.616;23.350;2023-02-15T08:00:10;16.33;;;10.45;;
6898;SDS011;3488;42.616;23.350;2023-02-15T08:02:38;15.07;;;10.85;;
6898;SDS011;3488;42.616;23.350;2023-02-15T08:05:06;15.95;;;11.45;;
6898;SDS011;3488;42.616;23.350;2023-02-15T08:07:33;21.02;;;11.43;;
6898;SDS011;3488;42.616;23.350;2023-02-15T08:10:00;17.92;;;10.75;;
6898;SDS011;3488;42.616;23.350;2023-02-15T08:12:27;20.23;;;12.68;;
6898;SDS011;3488;42.616;23.350;2023-02-15T08:14:55;15.80;;;10.52;;
6898;SDS011;3488;42.616;23.350;2023-02-15T08:17:22;11.15;;;8.77;;
6898;SDS011;3488;42.616;23.350;2023-02-15T08:19:49;18.15;;;10.95;;
6898;SDS011;3488;42.616;23.350;2023-02-15T08:22:16;11.55;;;8.32;;
6898;SDS011;3488;42.616;23.350;2023-02-15T08:24:42;17.27;;;10.00;;
6898;SDS011;3488;42.616;23.350;2023-02-15T08:27:10;15.02;;;11.13;;
6898;SDS011;3488;42.616;23.350;2023-02-15T08:29:37;14.73;;;10.90;;
6898;SDS011;3488;42.616;23.350;2023-02-15T08:32:08;18.73;;;11.55;;
6898;SDS011;3488;42.616;23.350;2023-02-15T08:34:37;17.25;;;10.95;;
6898;SDS011;3488;42.616;23.350;2023-02-15T08:37:06;12.40;;;8.18;;
6898;SDS011;3488;42.616;23.350;2023-02-15T08:39:34;17.48;;;11.70;;
6898;SDS011;3488;42.616;23.350;2023-02-15T08:42:02;16.25;;;10.73;;
6898;SDS011;3488;42.616;23.350;2023-02-15T08:44:29;18.33;;;9.80;;
6898;SDS011;3488;42.616;23.350;2023-02-15T08:46:56;21.67;;;10.68;;
6898;SDS011;3488;42.616;23.350;2023-02-15T08:49:29;19.50;;;10.95;;
6898;SDS011;3488;42.616;23.350;2023-02-15T08:51:56;16.23;;;10.30;;
6898;SDS011;3488;42.616;23.350;2023-02-15T08:54:23;13.40;;;9.85;;
6898;SDS011;3488;42.616;23.350;2023-02-15T08:56:50;14.75;;;9.05;;
6898;SDS011;3488;42.616;23.350;2023-02-15T08:59:18;14.60;;;9.38;;
6898;SDS011;3488;42.616;23.350;2023-02-15T09:01:46;13.82;;;9.55;;
6898;SDS011;3488;42.616;23.350;2023-02-15T09:04:14;9.63;;;6.28;;
6898;SDS011;3488;42.616;23.350;2023-02-15T09:06:42;16.38;;;8.52;;
6898;SDS011;3488;42.616;23.350;2023-02-15T09:09:10;18.17;;;10.57;;
6898;SDS011;3488;42.616;23.350;2023-02-15T09:11:38;16.00;;;10.52;;
6898;SDS011;3488;42.616;23.350;2023-02-15T09:14:07;17.50;;;11.45;;
6898;SDS011;3488;42.616;23.350;2023-02-15T09:16:38;13.90;;;9.23;;
6898;SDS011;3488;42.616;23.350;2023-02-15T09:19:06;16.73;;;10.98;;
6898;SDS011;3488;42.616;23.350;2023-02-15T09:21:35;15.13;;;10.20;;
6898;SDS011;3488;42.616;23.350;2023-02-15T09:24:05;18.33;;;11.13;;
6898;SDS011;3488;42.616;23.350;2023-02-15T09:26:34;20.77;;;13.07;;
6898;SDS011;3488;42.616;23.350;2023-02-15T09:29:03;19.42;;;13.20;;
6898;SDS011;3488;42.616;23.350;2023-02-15T09:31:31;17.42;;;11.25;;
6898;SDS011;3488;42.616;23.350;2023-02-15T09:33:59;20.67;;;13.48;;
6898;SDS011;3488;42.616;23.350;2023-02-15T09:36:27;18.98;;;11.45;;
6898;SDS011;3488;42.616;23.350;2023-02-15T09:38:56;18.95;;;13.07;;
6898;SDS011;3488;42.616;23.350;2023-02-15T09:41:38;16.27;;;10.98;;
6898;SDS011;3488;42.616;23.350;2023-02-15T09:44:21;21.60;;;13.80;;
6898;SDS011;3488;42.616;23.350;2023-02-15T09:47:04;17.08;;;11.50;;
6898;SDS011;3488;42.616;23.350;2023-02-15T09:49:45;23.73;;;13.43;;
6898;SDS011;3488;42.616;23.350;2023-02-15T09:52:32;22.30;;;14.43;;
6898;SDS011;3488;42.616;23.350;2023-02-15T09:55:12;21.10;;;13.98;;
6898;SDS011;3488;42.616;23.350;2023-02-15T09:57:53;12.13;;;9.98;;
6898;SDS011;3488;42.616;23.350;2023-02-15T10:00:30;19.52;;;12.18;;
6898;SDS011;3488;42.616;23.350;2023-02-15T10:06:00;19.20;;;12.20;;
6898;SDS011;3488;42.616;23.350;2023-02-15T10:08:47;13.90;;;10.35;;
6898;SDS011;3488;42.616;23.350;2023-02-15T10:11:37;16.40;;;9.55;;
6898;SDS011;3488;42.616;23.350;2023-02-15T10:14:26;18.05;;;11.18;;
6898;SDS011;3488;42.616;23.350;2023-02-15T10:17:14;16.73;;;11.63;;
6898;SDS011;3488;42.616;23.350;2023-02-15T10:19:53;16.67;;;11.88;;
6898;SDS011;3488;42.616;23.350;2023-02-15T10:22:34;14.50;;;10.80;;
6898;SDS011;3488;42.616;23.350;2023-02-15T10:28:05;17.70;;;10.82;;
6898;SDS011;3488;42.616;23.350;2023-02-15T10:30:39;22.67;;;13.98;;
6898;SDS011;3488;42.616;23.350;2023-02-15T10:33:14;17.65;;;12.95;;
6898;SDS011;3488;42.616;23.350;2023-02-15T10:35:52;18.38;;;12.63;;
6898;SDS011;3488;42.616;23.350;2023-02-15T10:38:29;18.70;;;12.45;;
6898;SDS011;3488;42.616;23.350;2023-02-15T10:41:13;18.80;;;12.77;;
6898;SDS011;3488;42.616;23.350;2023-02-15T10:43:56;21.20;;;13.70;;
6898;SDS011;3488;42.616;23.350;2023-02-15T10:49:39;17.88;;;11.80;;
6898;SDS011;3488;42.616;23.350;2023-02-15T10:52:21;18.55;;;12.10;;
6898;SDS011;3488;42.616;23.350;2023-02-15T10:54:59;20.67;;;13.27;;
6898;SDS011;3488;42.616;23.350;2023-02-15T10:57:35;19.70;;;13.48;;
6898;SDS011;3488;42.616;23.350;2023-02-15T11:00:13;22.67;;;13.48;;
6898;SDS011;3488;42.616;23.350;2023-02-15T11:02:52;23.40;;;14.05;;
6898;SDS011;3488;42.616;23.350;2023-02-15T11:05:39;17.77;;;9.20;;
6898;SDS011;3488;42.616;23.350;2023-02-15T11:08:14;17.65;;;11.05;;
6898;SDS011;3488;42.616;23.350;2023-02-15T11:10:43;24.77;;;15.45;;
6898;SDS011;3488;42.616;23.350;2023-02-15T11:13:14;15.98;;;11.02;;
6898;SDS011;3488;42.616;23.350;2023-02-15T11:15:44;20.50;;;12.63;;
6898;SDS011;3488;42.616;23.350;2023-02-15T11:18:19;14.07;;;10.80;;
6898;SDS011;3488;42.616;23.350;2023-02-15T11:20:53;21.80;;;14.48;;
6898;SDS011;3488;42.616;23.350;2023-02-15T11:23:23;26.92;;;16.70;;
6898;SDS011;3488;42.616;23.350;2023-02-15T11:25:54;22.73;;;13.18;;
6898;SDS011;3488;42.616;23.350;2023-02-15T11:28:24;21.80;;;13.80;;
6898;SDS011;3488;42.616;23.350;2023-02-15T11:30:57;25.60;;;15.82;;
6898;SDS011;3488;42.616;23.350;2023-02-15T11:33:31;22.55;;;14.55;;
6898;SDS011;3488;42.616;23.350;2023-02-15T11:36:05;22.67;;;12.77;;
6898;SDS011;3488;42.616;23.350;2023-02-15T11:38:38;24.40;;;14.63;;
6898;SDS011;3488;42.616;23.350;2023-02-15T11:41:09;24.35;;;15.52;;
6898;SDS011;3488;42.616;23.350;2023-02-15T11:43:39;17.33;;;11.82;;
6898;SDS011;3488;42.616;23.350;2023-02-15T11:46:10;25.17;;;15.70;;
6898;SDS011;3488;42.616;23.350;2023-02-15T11:48:41;23.63;;;14.63;;
6898;SDS011;3488;42.616;23.350;2023-02-15T11:51:09;24.38;;;15.30;;
6898;SDS011;3488;42.616;23.350;2023-02-15T11:53:41;25.58;;;15.63;;
6898;SDS011;3488;42.616;23.350;2023-02-15T11:56:12;29.17;;;15.55;;
6898;SDS011;3488;42.616;23.350;2023-02-15T11:58:41;20.05;;;13.63;;
6898;SDS011;3488;42.616;23.350;2023-02-15T12:01:15;17.98;;;10.00;;
6898;SDS011;3488;42.616;23.350;2023-02-15T12:03:46;19.80;;;11.43;;
6898;SDS011;3488;42.616;23.350;2023-02-15T12:06:17;25.80;;;14.88;;
6898;SDS011;3488;42.616;23.350;2023-02-15T12:08:55;25.80;;;15.70;;
6898;SDS011;3488;42.616;23.350;2023-02-15T12:11:29;21.27;;;13.98;;
6898;SDS011;3488;42.616;23.350;2023-02-15T12:14:03;27.95;;;15.68;;
6898;SDS011;3488;42.616;23.350;2023-02-15T12:16:32;26.00;;;16.80;;
6898;SDS011;3488;42.616;23.350;2023-02-15T12:19:12;33.50;;;15.93;;
6898;SDS011;3488;42.616;23.350;2023-02-15T12:21:49;23.55;;;15.32;;
6898;SDS011;3488;42.616;23.350;2023-02-15T12:24:18;23.25;;;15.27;;
6898;SDS011;3488;42.616;23.350;2023-02-15T12:26:55;25.95;;;15.63;;
6898;SDS011;3488;42.616;23.350;2023-02-15T12:29:25;24.45;;;15.15;;
6898;SDS011;3488;42.616;23.350;2023-02-15T12:31:56;22.08;;;15.07;;
6898;SDS011;3488;42.616;23.350;2023-02-15T12:34:26;24.05;;;14.55;;
6898;SDS011;3488;42.616;23.350;2023-02-15T12:36:57;24.77;;;15.52;;
6898;SDS011;3488;42.616;23.350;2023-02-15T12:39:28;24.48;;;12.02;;
6898;SDS011;3488;42.616;23.350;2023-02-15T12:41:57;23.05;;;13.70;;
6898;SDS011;3488;42.616;23.350;2023-02-15T12:44:27;23.88;;;15.25;;
6898;SDS011;3488;42.616;23.350;2023-02-15T12:46:56;26.08;;;15.80;;
6898;SDS011;3488;42.616;23.350;2023-02-15T12:49:27;22.58;;;16.00;;
6898;SDS011;3488;42.616;23.350;2023-02-15T12:51:55;24.90;;;15.52;;
6898;SDS011;3488;42.616;23.350;2023-02-15T12:54:31;25.42;;;15.20;;
6898;SDS011;3488;42.616;23.350;2023-02-15T12:57:21;18.30;;;12.95;;
6898;SDS011;3488;42.616;23.350;2023-02-15T12:59:52;26.85;;;16.15;;
6898;SDS011;3488;42.616;23.350;2023-02-15T13:02:22;25.80;;;15.68;;
6898;SDS011;3488;42.616;23.350;2023-02-15T13:04:55;24.25;;;16.23;;
6898;SDS011;3488;42.616;23.350;2023-02-15T13:07:25;25.85;;;16.38;;
6898;SDS011;3488;42.616;23.350;2023-02-15T13:09:57;27.08;;;18.33;;
6898;SDS011;3488;42.616;23.350;2023-02-15T13:12:26;25.42;;;16.40;;
6898;SDS011;3488;42.616;23.350;2023-02-15T13:14:57;27.33;;;16.60;;
6898;SDS011;3488;42.616;23.350;2023-02-15T13:17:27;26.27;;;16.55;;
6898;SDS011;3488;42.616;23.350;2023-02-15T13:20:00;24.95;;;15.48;;
6898;SDS011;3488;42.616;23.350;2023-02-15T13:22:33;24.60;;;14.93;;
6898;SDS011;3488;42.616;23.350;2023-02-15T13:25:09;24.73;;;16.55;;
6898;SDS011;3488;42.616;23.350;2023-02-15T13:27:39;28.27;;;12.98;;
6898;SDS011;3488;42.616;23.350;2023-02-15T13:30:21;30.48;;;16.90;;
6898;SDS011;3488;42.616;23.350;2023-02-15T13:32:52;27.45;;;16.52;;
6898;SDS011;3488;42.616;23.350;2023-02-15T13:35:24;27.25;;;16.48;;
6898;SDS011;3488;42.616;23.350;2023-02-15T13:38:02;25.20;;;15.57;;
6898;SDS011;3488;42.616;23.350;2023-02-15T13:40:40;25.67;;;16.60;;
6898;SDS011;3488;42.616;23.350;2023-02-15T13:43:16;24.70;;;15.10;;
6898;SDS011;3488;42.616;23.350;2023-02-15T13:45:55;21.13;;;12.32;;
6898;SDS011;3488;42.616;23.350;2023-02-15T13:48:34;24.40;;;15.02;;
6898;SDS011;3488;42.616;23.350;2023-02-15T13:51:12;27.45;;;16.98;;
6898;SDS011;3488;42.616;23.350;2023-02-15T13:53:52;24.92;;;16.23;;
6898;SDS011;3488;42.616;23.350;2023-02-15T13:56:38;26.05;;;16.33;;
6898;SDS011;3488;42.616;23.350;2023-02-15T13:59:28;26.63;;;15.75;;
6898;SDS011;3488;42.616;23.350;2023-02-15T14:02:30;24.95;;;15.95;;
6898;SDS011;3488;42.616;23.350;2023-02-15T14:05:10;23.70;;;16.70;;
6898;SDS011;3488;42.616;23.350;2023-02-15T14:07:52;23.73;;;15.93;;
6898;SDS011;3488;42.616;23.350;2023-02-15T14:16:26;27.08;;;16.98;;
6898;SDS011;3488;42.616;23.350;2023-02-15T14:19:05;23.42;;;15.20;;
6898;SDS011;3488;42.616;23.350;2023-02-15T14:21:41;23.02;;;15.30;;
6898;SDS011;3488;42.616;23.350;2023-02-15T14:24:17;27.85;;;15.63;;
6898;SDS011;3488;42.616;23.350;2023-02-15T14:26:56;24.48;;;16.15;;
6898;SDS011;3488;42.616;23.350;2023-02-15T14:29:34;30.13;;;17.00;;
6898;SDS011;3488;42.616;23.350;2023-02-15T14:32:13;29.83;;;16.25;;
6898;SDS011;3488;42.616;23.350;2023-02-15T14:34:45;27.73;;;17.50;;
6898;SDS011;3488;42.616;23.350;2023-02-15T14:37:17;28.80;;;17.48;;
6898;SDS011;3488;42.616;23.350;2023-02-15T14:39:51;30.52;;;18.17;;
6898;SDS011;3488;42.616;23.350;2023-02-15T14:42:44;24.38;;;15.57;;
6898;SDS011;3488;42.616;23.350;2023-02-15T14:45:21;26.05;;;17.00;;
6898;SDS011;3488;42.616;23.350;2023-02-15T14:47:52;29.88;;;18.58;;
6898;SDS011;3488;42.616;23.350;2023-02-15T14:50:37;30.65;;;19.23;;
6898;SDS011;3488;42.616;23.350;2023-02-15T14:56:12;33.72;;;18.17;;
6898;SDS011;3488;42.616;23.350;2023-02-15T14:58:54;30.73;;;19.40;;
6898;SDS011;3488;42.616;23.350;2023-02-15T15:01:27;32.40;;;19.60;;
6898;SDS011;3488;42.616;23.350;2023-02-15T15:03:58;27.88;;;18.00;;
6898;SDS011;3488;42.616;23.350;2023-02-15T15:06:29;32.03;;;20.33;;
6898;SDS011;3488;42.616;23.350;2023-02-15T15:09:00;30.52;;;18.58;;
6898;SDS011;3488;42.616;23.350;2023-02-15T15:11:47;31.80;;;18.90;;
6898;SDS011;3488;42.616;23.350;2023-02-15T15:17:04;36.10;;;20.27;;
6898;SDS011;3488;42.616;23.350;2023-02-15T15:22:25;35.50;;;21.35;;
6898;SDS011;3488;42.616;23.350;2023-02-15T15:24:53;37.13;;;21.77;;
6898;SDS011;3488;42.616;23.350;2023-02-15T15:33:22;44.75;;;23.92;;
6898;SDS011;3488;42.616;23.350;2023-02-15T15:36:10;62.60;;;31.65;;
6898;SDS011;3488;42.616;23.350;2023-02-15T15:38:58;75.32;;;36.22;;